Time;durP1;ratioP1;P1;durP2;ratioP2;P2;SDS_P1;SDS_P2;PMS_P1;PMS_P2;Temp;Humidity;BMP_temperature;BMP_pressure;BME280_temperature;BME280_humidity;BME280_pressure;Samples;Min_cycle;Max_cycle;Signal;HPM_P1;HPM_P2
2021/05/28 00:02:26;;;;;;;3.65;2.55;;;;;;;;;;5009317;28;20046;-59
2021/05/28 00:04:55;;;;;;;4.53;2.63;;;;;;;;;;5009453;28;20149;-60
2021/05/28 00:07:22;;;;;;;3.80;2.65;;;;;;;;;;5008857;28;20054;-60
2021/05/28 00:09:51;;;;;;;4.30;2.70;;;;;;;;;;5000368;28;20089;-60
2021/05/28 00:12:19;;;;;;;4.88;2.55;;;;;;;;;;5009086;28;20121;-60
2021/05/28 00:14:47;;;;;;;7.05;3.13;;;;;;;;;;5008532;28;20053;-60
2021/05/28 00:17:15;;;;;;;2.88;2.58;;;;;;;;;;5008877;28;20129;-60
2021/05/28 00:19:42;;;;;;;3.90;2.60;;;;;;;;;;5008580;28;20831;-60
2021/05/28 00:22:10;;;;;;;5.38;2.90;;;;;;;;;;5008852;28;20054;-60
2021/05/28 00:24:38;;;;;;;5.18;2.67;;;;;;;;;;5008346;28;20082;-60
2021/05/28 00:27:07;;;;;;;3.65;2.88;;;;;;;;;;5009905;28;20054;-60
2021/05/28 00:29:35;;;;;;;4.80;3.08;;;;;;;;;;5008541;28;20120;-60
2021/05/28 00:32:03;;;;;;;6.22;3.05;;;;;;;;;;5009230;28;20077;-60
2021/05/28 00:34:31;;;;;;;5.93;3.03;;;;;;;;;;5008033;28;20552;-60
2021/05/28 00:36:59;;;;;;;4.75;3.08;;;;;;;;;;5008020;28;20108;-60
2021/05/28 00:39:27;;;;;;;5.13;3.10;;;;;;;;;;5008223;28;20110;-60
2021/05/28 00:41:55;;;;;;;3.92;2.80;;;;;;;;;;5008929;28;20056;-59
2021/05/28 00:44:24;;;;;;;5.07;2.80;;;;;;;;;;5008091;28;20528;-60
2021/05/28 00:46:52;;;;;;;5.30;3.22;;;;;;;;;;5000594;28;20115;-60
2021/05/28 00:49:19;;;;;;;5.05;2.60;;;;;;;;;;5008513;28;20125;-60
2021/05/28 00:51:47;;;;;;;4.47;2.70;;;;;;;;;;5008608;28;20060;-60
2021/05/28 00:54:15;;;;;;;4.03;2.88;;;;;;;;;;5008165;28;20104;-60
2021/05/28 00:56:44;;;;;;;3.45;2.63;;;;;;;;;;5008183;28;20129;-60
2021/05/28 00:59:13;;;;;;;6.28;3.30;;;;;;;;;;5007858;28;20145;-60
2021/05/28 01:01:42;;;;;;;4.75;2.60;;;;;;;;;;5008647;28;20137;-59
2021/05/28 01:04:10;;;;;;;4.47;2.85;;;;;;;;;;5012814;23;20058;-68
2021/05/28 01:06:37;;;;;;;4.25;2.88;;;;;;;;;;4970829;28;20149;-68
2021/05/28 01:09:06;;;;;;;4.50;3.28;;;;;;;;;;4972257;28;20142;-69
2021/05/28 01:11:33;;;;;;;5.30;3.40;;;;;;;;;;4972058;28;20057;-69
2021/05/28 01:14:01;;;;;;;5.03;3.97;;;;;;;;;;4972787;28;20055;-68
2021/05/28 01:16:29;;;;;;;6.53;3.55;;;;;;;;;;4972175;28;20051;-69
2021/05/28 01:18:58;;;;;;;5.70;3.25;;;;;;;;;;4972256;28;20073;-68
2021/05/28 01:21:26;;;;;;;8.68;3.10;;;;;;;;;;4972560;28;20051;-69
2021/05/28 01:23:55;;;;;;;7.53;3.95;;;;;;;;;;4972684;28;20054;-69
2021/05/28 01:26:23;;;;;;;6.15;3.08;;;;;;;;;;4971774;28;20141;-68
2021/05/28 01:28:51;;;;;;;5.20;3.15;;;;;;;;;;4971858;28;20051;-68
2021/05/28 01:31:18;;;;;;;5.15;2.90;;;;;;;;;;4971991;28;20050;-68
2021/05/28 01:33:47;;;;;;;4.28;2.75;;;;;;;;;;4971972;28;20146;-69
2021/05/28 01:36:14;;;;;;;4.93;2.80;;;;;;;;;;4972617;28;20158;-68
2021/05/28 01:38:42;;;;;;;6.32;2.72;;;;;;;;;;4971653;28;20502;-68
2021/05/28 01:41:11;;;;;;;3.60;2.70;;;;;;;;;;4972011;28;20046;-68
2021/05/28 01:43:38;;;;;;;6.38;2.90;;;;;;;;;;4971784;28;20049;-68
2021/05/28 01:46:06;;;;;;;5.35;2.92;;;;;;;;;;4971876;28;20054;-69
2021/05/28 01:48:34;;;;;;;4.18;3.13;;;;;;;;;;4971523;28;20042;-68
2021/05/28 01:51:02;;;;;;;4.53;2.92;;;;;;;;;;4971784;28;20055;-68
2021/05/28 01:53:29;;;;;;;6.28;2.97;;;;;;;;;;4971442;28;20057;-69
2021/05/28 01:55:57;;;;;;;6.03;2.83;;;;;;;;;;4971448;28;20504;-68
2021/05/28 01:58:26;;;;;;;4.57;2.75;;;;;;;;;;4972140;28;20433;-68
2021/05/28 02:00:56;;;;;;;4.70;3.00;;;;;;;;;;4972121;28;20050;-69
2021/05/28 02:03:25;;;;;;;4.78;2.78;;;;;;;;;;5015424;28;20072;-68
2021/05/28 02:05:52;;;;;;;4.60;3.00;;;;;;;;;;5069708;28;20564;-68
2021/05/28 02:08:20;;;;;;;5.78;2.78;;;;;;;;;;5065815;28;20053;-68
2021/05/28 02:10:48;;;;;;;7.55;3.17;;;;;;;;;;5069611;28;20051;-68
2021/05/28 02:13:16;;;;;;;5.20;2.75;;;;;;;;;;5069039;28;20056;-68
2021/05/28 02:15:45;;;;;;;6.93;3.17;;;;;;;;;;5069699;28;20048;-69
2021/05/28 02:18:12;;;;;;;4.88;2.60;;;;;;;;;;5070407;28;20143;-69
2021/05/28 02:20:40;;;;;;;4.78;2.60;;;;;;;;;;5072699;28;20496;-69
2021/05/28 02:23:08;;;;;;;5.18;2.60;;;;;;;;;;5073769;28;20127;-69
2021/05/28 02:25:36;;;;;;;4.90;2.90;;;;;;;;;;5054625;28;20137;-69
2021/05/28 02:28:04;;;;;;;4.65;2.67;;;;;;;;;;5085189;28;20051;-68
2021/05/28 02:30:32;;;;;;;3.75;2.70;;;;;;;;;;5073212;28;20047;-69
2021/05/28 02:33:00;;;;;;;5.32;2.55;;;;;;;;;;5073428;28;20056;-69
2021/05/28 02:35:28;;;;;;;3.92;2.70;;;;;;;;;;5073015;28;20181;-69
2021/05/28 02:37:56;;;;;;;6.28;2.40;;;;;;;;;;5073013;28;20055;-69
2021/05/28 02:40:24;;;;;;;4.25;2.90;;;;;;;;;;5073235;28;20045;-68
2021/05/28 02:42:52;;;;;;;3.42;2.80;;;;;;;;;;5061958;28;20044;-69
2021/05/28 02:45:21;;;;;;;3.60;2.60;;;;;;;;;;5073095;28;20052;-69
2021/05/28 02:47:48;;;;;;;4.38;2.45;;;;;;;;;;5072906;28;20131;-69
2021/05/28 02:50:17;;;;;;;4.22;2.42;;;;;;;;;;5073650;28;20153;-68
2021/05/28 02:52:45;;;;;;;3.75;2.53;;;;;;;;;;5073209;28;20087;-68
2021/05/28 02:55:13;;;;;;;3.40;2.42;;;;;;;;;;5072786;28;20510;-68
2021/05/28 02:57:41;;;;;;;5.90;2.47;;;;;;;;;;5072419;28;20052;-68
2021/05/28 03:00:09;;;;;;;4.65;3.08;;;;;;;;;;5071167;28;20040;-68
2021/05/28 03:02:37;;;;;;;3.42;2.58;;;;;;;;;;5072688;28;20052;-68
2021/05/28 03:05:05;;;;;;;7.13;2.55;;;;;;;;;;5051508;28;20085;-68
2021/05/28 03:07:34;;;;;;;6.15;2.72;;;;;;;;;;5032613;28;20513;-68
2021/05/28 03:10:02;;;;;;;4.80;2.42;;;;;;;;;;5045036;28;20051;-68
2021/05/28 03:12:29;;;;;;;4.97;2.63;;;;;;;;;;5043746;28;20041;-68
2021/05/28 03:14:57;;;;;;;4.75;2.50;;;;;;;;;;5052519;28;20049;-68
2021/05/28 03:17:25;;;;;;;4.22;2.63;;;;;;;;;;5044847;28;20142;-68
2021/05/28 03:19:53;;;;;;;3.70;2.17;;;;;;;;;;5052467;28;20053;-68
2021/05/28 03:22:31;;;;;;;4.35;3.15;;;;;;;;;;5051298;28;20136;-68
2021/05/28 03:25:00;;;;;;;4.25;2.78;;;;;;;;;;5052498;28;20135;-68
2021/05/28 03:27:28;;;;;;;4.60;2.70;;;;;;;;;;5052133;28;20083;-68
2021/05/28 03:29:56;;;;;;;5.72;3.03;;;;;;;;;;5051329;28;20106;-68
2021/05/28 03:32:24;;;;;;;5.20;2.92;;;;;;;;;;5052293;28;20056;-68
2021/05/28 03:34:52;;;;;;;8.20;3.55;;;;;;;;;;5049039;28;20055;-68
2021/05/28 03:37:21;;;;;;;7.15;2.80;;;;;;;;;;5050874;28;20048;-68
2021/05/28 03:39:49;;;;;;;5.25;2.95;;;;;;;;;;5051614;28;20488;-68
2021/05/28 03:42:18;;;;;;;5.57;2.67;;;;;;;;;;5052326;28;20837;-68
2021/05/28 03:44:46;;;;;;;4.90;2.88;;;;;;;;;;5052198;28;20064;-68
2021/05/28 03:47:15;;;;;;;4.45;3.08;;;;;;;;;;5051409;28;20476;-68
2021/05/28 03:49:43;;;;;;;8.00;2.85;;;;;;;;;;5050865;28;20485;-68
2021/05/28 03:52:10;;;;;;;4.97;2.72;;;;;;;;;;5050659;28;20069;-68
2021/05/28 03:54:38;;;;;;;4.95;2.70;;;;;;;;;;5053301;28;20071;-68
2021/05/28 03:57:06;;;;;;;7.35;2.88;;;;;;;;;;5051645;28;20143;-68
2021/05/28 03:59:35;;;;;;;6.25;2.60;;;;;;;;;;5051207;28;20041;-68
2021/05/28 04:02:04;;;;;;;4.80;2.63;;;;;;;;;;5051884;28;20132;-68
2021/05/28 04:04:33;;;;;;;4.10;2.60;;;;;;;;;;5060165;28;20242;-69
2021/05/28 04:07:02;;;;;;;3.85;2.53;;;;;;;;;;5063434;28;20048;-69
2021/05/28 04:09:34;;;;;;;4.80;3.60;;;;;;;;;;5069257;28;20040;-68
2021/05/28 04:12:02;;;;;;;5.80;2.83;;;;;;;;;;5069264;28;20140;-68
2021/05/28 04:14:29;;;;;;;5.15;3.03;;;;;;;;;;5069670;28;20040;-68
2021/05/28 04:16:58;;;;;;;4.07;2.97;;;;;;;;;;5086391;28;20675;-68
2021/05/28 04:19:26;;;;;;;5.18;2.58;;;;;;;;;;5074045;28;20036;-68
2021/05/28 04:21:54;;;;;;;5.38;2.83;;;;;;;;;;5071347;28;20133;-68
2021/05/28 04:24:21;;;;;;;6.97;2.53;;;;;;;;;;5071529;28;20049;-68
2021/05/28 04:26:49;;;;;;;4.40;2.67;;;;;;;;;;5070452;28;20048;-68
2021/05/28 04:29:19;;;;;;;3.55;2.63;;;;;;;;;;5069919;28;20486;-68
2021/05/28 04:31:47;;;;;;;4.38;2.80;;;;;;;;;;5070334;28;20052;-68
2021/05/28 04:34:15;;;;;;;8.57;3.50;;;;;;;;;;5070013;28;20131;-68
2021/05/28 04:36:43;;;;;;;5.85;3.20;;;;;;;;;;5069400;28;20071;-68
2021/05/28 04:39:11;;;;;;;5.75;3.70;;;;;;;;;;5071054;28;20051;-68
2021/05/28 04:41:40;;;;;;;3.95;3.30;;;;;;;;;;5077885;28;20039;-68
2021/05/28 04:44:09;;;;;;;5.03;3.42;;;;;;;;;;5070712;28;20079;-68
2021/05/28 04:46:37;;;;;;;4.60;3.40;;;;;;;;;;5070538;28;20052;-68
2021/05/28 04:49:06;;;;;;;5.45;3.30;;;;;;;;;;5070940;28;20045;-68
2021/05/28 04:51:40;;;;;;;4.10;3.42;;;;;;;;;;5071513;28;20066;-68
2021/05/28 04:54:08;;;;;;;6.53;3.33;;;;;;;;;;5070715;28;20084;-68
2021/05/28 04:56:36;;;;;;;4.45;2.72;;;;;;;;;;5070172;28;20114;-68
2021/05/28 04:59:04;;;;;;;5.10;3.17;;;;;;;;;;5077380;28;20049;-68
2021/05/28 05:01:31;;;;;;;8.38;3.95;;;;;;;;;;5070085;28;20135;-68
2021/05/28 05:03:59;;;;;;;6.20;4.20;;;;;;;;;;5069534;28;20056;-68
2021/05/28 05:06:27;;;;;;;5.78;3.80;;;;;;;;;;5070033;28;20048;-68
2021/05/28 05:08:56;;;;;;;5.05;3.15;;;;;;;;;;5070815;28;20040;-68
2021/05/28 05:11:26;;;;;;;6.15;3.50;;;;;;;;;;5070531;28;20571;-68
2021/05/28 05:13:54;;;;;;;8.57;3.97;;;;;;;;;;5070879;28;20127;-68
2021/05/28 05:16:25;;;;;;;7.00;4.13;;;;;;;;;;5082374;28;20135;-68
2021/05/28 05:19:18;;;;;;;7.97;4.55;;;;;;;;;;5081652;28;20052;-68
2021/05/28 05:21:52;;;;;;;10.52;5.03;;;;;;;;;;5070505;28;20048;-68
2021/05/28 05:24:21;;;;;;;6.55;3.92;;;;;;;;;;5069051;28;20045;-69
2021/05/28 05:26:49;;;;;;;5.72;4.43;;;;;;;;;;5069920;28;20562;-68
2021/05/28 05:29:17;;;;;;;8.80;4.90;;;;;;;;;;5069784;28;20127;-68
2021/05/28 05:31:44;;;;;;;7.18;4.45;;;;;;;;;;5070305;28;20040;-68
2021/05/28 05:34:13;;;;;;;6.68;4.50;;;;;;;;;;5073980;28;20048;-68
2021/05/28 05:36:43;;;;;;;10.55;4.68;;;;;;;;;;5069934;28;20462;-69
2021/05/28 05:39:11;;;;;;;6.50;4.65;;;;;;;;;;5070216;28;20083;-68
2021/05/28 05:41:42;;;;;;;9.48;4.40;;;;;;;;;;5070481;28;20158;-69
2021/05/28 05:44:13;;;;;;;6.18;4.07;;;;;;;;;;5070041;28;20131;-68
2021/05/28 05:46:41;;;;;;;6.75;4.13;;;;;;;;;;5071481;28;20148;-68
2021/05/28 05:49:09;;;;;;;10.02;5.20;;;;;;;;;;5084207;28;20044;-69
2021/05/28 05:51:38;;;;;;;7.20;3.92;;;;;;;;;;5090762;28;20051;-68
2021/05/28 05:54:06;;;;;;;8.02;4.50;;;;;;;;;;5081178;28;20098;-68
2021/05/28 05:56:34;;;;;;;9.32;4.30;;;;;;;;;;5068818;28;20044;-69
2021/05/28 05:59:03;;;;;;;7.07;3.90;;;;;;;;;;5069199;28;20083;-68
2021/05/28 06:01:33;;;;;;;7.07;4.80;;;;;;;;;;5068817;28;20158;-68
2021/05/28 06:04:01;;;;;;;8.85;4.50;;;;;;;;;;5069374;28;20799;-69
2021/05/28 06:06:30;;;;;;;8.43;4.63;;;;;;;;;;5069310;28;20044;-69
2021/05/28 06:08:59;;;;;;;8.07;4.32;;;;;;;;;;5069417;28;20131;-68
2021/05/28 06:11:26;;;;;;;7.38;4.90;;;;;;;;;;5068889;28;20484;-68
2021/05/28 06:13:54;;;;;;;8.27;4.32;;;;;;;;;;5068755;28;20056;-69
2021/05/28 06:16:23;;;;;;;7.38;5.38;;;;;;;;;;5067939;28;20495;-68
2021/05/28 06:18:51;;;;;;;9.63;4.53;;;;;;;;;;5069231;28;20088;-69
2021/05/28 06:21:18;;;;;;;6.32;4.18;;;;;;;;;;5069015;28;20045;-68
2021/05/28 06:23:47;;;;;;;6.72;4.20;;;;;;;;;;5069786;28;20140;-68
2021/05/28 06:26:15;;;;;;;8.07;4.45;;;;;;;;;;5067921;28;20048;-69
2021/05/28 06:28:43;;;;;;;8.18;4.50;;;;;;;;;;5068368;28;20512;-69
2021/05/28 06:31:11;;;;;;;7.38;4.22;;;;;;;;;;5066784;28;20108;-69
2021/05/28 06:33:40;;;;;;;8.85;4.80;;;;;;;;;;5066458;28;20084;-69
2021/05/28 06:36:08;;;;;;;7.90;4.70;;;;;;;;;;5065330;28;20056;-68
2021/05/28 06:38:36;;;;;;;7.43;4.60;;;;;;;;;;5066437;28;20131;-69
2021/05/28 06:41:04;;;;;;;6.32;4.25;;;;;;;;;;5076545;28;20048;-69
2021/05/28 06:43:32;;;;;;;6.55;3.88;;;;;;;;;;5066276;28;20052;-69
2021/05/28 06:45:59;;;;;;;6.45;4.50;;;;;;;;;;5065602;28;20143;-69
2021/05/28 06:48:27;;;;;;;8.02;5.28;;;;;;;;;;5065443;28;20106;-69
2021/05/28 06:50:57;;;;;;;9.52;4.80;;;;;;;;;;5065984;28;20127;-69
2021/05/28 06:53:26;;;;;;;5.78;3.78;;;;;;;;;;5066215;28;20499;-69
2021/05/28 06:55:54;;;;;;;7.13;4.28;;;;;;;;;;5064847;28;20056;-69
2021/05/28 06:58:22;;;;;;;8.40;4.40;;;;;;;;;;5065705;28;20052;-69
2021/05/28 07:00:50;;;;;;;6.88;4.03;;;;;;;;;;5059841;28;20049;-68
2021/05/28 07:03:18;;;;;;;11.50;5.50;;;;;;;;;;5063634;28;20389;-69
2021/05/28 07:05:46;;;;;;;10.23;4.72;;;;;;;;;;5067169;28;20099;-69
2021/05/28 07:08:15;;;;;;;8.10;4.68;;;;;;;;;;5063065;28;20104;-69
2021/05/28 07:10:43;;;;;;;7.00;4.55;;;;;;;;;;5056635;28;20126;-69
2021/05/28 07:13:20;;;;;;;8.98;4.93;;;;;;;;;;5068297;28;20587;-69
2021/05/28 07:15:48;;;;;;;8.10;4.95;;;;;;;;;;5078411;28;20067;-69
2021/05/28 07:18:16;;;;;;;5.63;4.35;;;;;;;;;;5071539;28;20130;-69
2021/05/28 07:20:44;;;;;;;5.45;4.05;;;;;;;;;;5068863;28;20048;-69
2021/05/28 07:23:13;;;;;;;7.75;5.07;;;;;;;;;;5068666;28;20044;-69
2021/05/28 07:25:42;;;;;;;7.53;4.30;;;;;;;;;;5068182;28;20044;-68
2021/05/28 07:28:10;;;;;;;7.13;4.22;;;;;;;;;;5068197;28;20131;-68
2021/05/28 07:30:38;;;;;;;10.57;4.30;;;;;;;;;;5069881;28;20048;-68
2021/05/28 07:33:05;;;;;;;8.63;4.78;;;;;;;;;;5067130;28;20048;-68
2021/05/28 07:35:33;;;;;;;6.95;4.15;;;;;;;;;;5067417;28;20231;-69
2021/05/28 07:38:02;;;;;;;7.10;4.38;;;;;;;;;;5066361;28;20131;-69
2021/05/28 07:40:30;;;;;;;11.07;4.70;;;;;;;;;;5068478;28;20048;-69
2021/05/28 07:42:59;;;;;;;6.78;4.43;;;;;;;;;;5069524;28;20052;-68
2021/05/28 07:45:28;;;;;;;9.63;4.20;;;;;;;;;;5049165;28;20065;-69
2021/05/28 07:48:07;;;;;;;7.13;4.22;;;;;;;;;;5066139;28;20060;-69
2021/05/28 07:50:45;;;;;;;9.88;3.72;;;;;;;;;;5063522;28;20122;-69
2021/05/28 07:53:14;;;;;;;7.38;4.80;;;;;;;;;;5070031;28;20045;-69
2021/05/28 07:55:42;;;;;;;8.90;4.20;;;;;;;;;;5069856;28;20052;-69
2021/05/28 07:58:12;;;;;;;8.32;4.25;;;;;;;;;;5087906;28;20138;-69
2021/05/28 08:00:40;;;;;;;8.88;4.20;;;;;;;;;;5066173;28;20098;-69
2021/05/28 08:03:09;;;;;;;6.78;3.83;;;;;;;;;;5000472;28;20094;-69
2021/05/28 08:05:37;;;;;;;7.68;4.28;;;;;;;;;;5064525;28;20500;-69
2021/05/28 08:08:09;;;;;;;6.00;3.92;;;;;;;;;;5061540;28;20059;-69
2021/05/28 08:10:38;;;;;;;9.52;3.97;;;;;;;;;;5067845;28;20411;-69
2021/05/28 08:13:07;;;;;;;10.38;5.00;;;;;;;;;;5069791;28;20176;-68
2021/05/28 08:15:36;;;;;;;5.95;4.18;;;;;;;;;;5069969;28;20045;-69
2021/05/28 08:18:05;;;;;;;7.65;4.60;;;;;;;;;;5064875;28;20067;-69
2021/05/28 08:20:35;;;;;;;7.30;4.22;;;;;;;;;;5067204;28;20048;-69
2021/05/28 08:23:03;;;;;;;6.32;4.63;;;;;;;;;;5067307;28;20052;-69
2021/05/28 08:25:31;;;;;;;6.50;3.88;;;;;;;;;;5065880;28;20114;-68
2021/05/28 08:27:59;;;;;;;6.80;3.85;;;;;;;;;;5076214;28;20055;-69
2021/05/28 08:30:28;;;;;;;10.80;4.80;;;;;;;;;;5068551;28;20173;-67
2021/05/28 08:32:57;;;;;;;11.32;5.07;;;;;;;;;;5069462;28;20051;-69
2021/05/28 08:35:25;;;;;;;8.57;5.75;;;;;;;;;;5069493;28;20048;-69
2021/05/28 08:37:54;;;;;;;5.82;4.22;;;;;;;;;;5060151;28;20103;-69
2021/05/28 08:40:23;;;;;;;8.63;4.78;;;;;;;;;;5065324;28;20051;-69
2021/05/28 08:42:52;;;;;;;7.38;3.92;;;;;;;;;;5068938;28;20040;-69
2021/05/28 08:45:20;;;;;;;5.43;3.70;;;;;;;;;;5069317;28;20443;-68
2021/05/28 08:47:49;;;;;;;6.78;3.97;;;;;;;;;;5067200;28;20049;-69
2021/05/28 08:50:19;;;;;;;5.88;4.28;;;;;;;;;;5067296;28;20053;-69
2021/05/28 08:52:47;;;;;;;5.20;3.40;;;;;;;;;;5070719;28;20076;-69
2021/05/28 08:55:15;;;;;;;9.10;4.40;;;;;;;;;;5071113;28;20167;-68
2021/05/28 08:57:44;;;;;;;6.65;4.10;;;;;;;;;;5065863;28;20059;-68
2021/05/28 09:00:12;;;;;;;7.68;4.07;;;;;;;;;;5069903;28;20095;-69
2021/05/28 09:02:41;;;;;;;5.85;3.78;;;;;;;;;;5066740;28;20044;-68
2021/05/28 09:05:12;;;;;;;5.60;3.58;;;;;;;;;;5064677;28;20052;-68
2021/05/28 09:07:52;;;;;;;4.47;3.58;;;;;;;;;;5065434;28;20040;-68
2021/05/28 09:10:26;;;;;;;10.60;4.30;;;;;;;;;;5064934;28;20048;-68
2021/05/28 09:12:55;;;;;;;6.53;3.78;;;;;;;;;;5065194;28;20060;-68
2021/05/28 09:15:24;;;;;;;4.75;3.88;;;;;;;;;;5066224;28;20044;-68
2021/05/28 09:17:54;;;;;;;7.43;4.50;;;;;;;;;;5057589;28;20381;-68
2021/05/28 09:20:22;;;;;;;7.95;4.20;;;;;;;;;;5066910;28;20056;-68
2021/05/28 09:23:06;;;;;;;5.63;4.15;;;;;;;;;;5067256;28;20768;-68
2021/05/28 09:25:49;;;;;;;5.53;3.63;;;;;;;;;;5066891;28;20114;-68
2021/05/28 09:28:17;;;;;;;5.57;4.00;;;;;;;;;;5064387;28;20076;-68
2021/05/28 09:30:54;;;;;;;5.82;3.88;;;;;;;;;;5063818;28;20131;-68
2021/05/28 09:33:25;;;;;;;8.63;4.40;;;;;;;;;;5073133;28;20514;-68
2021/05/28 09:35:54;;;;;;;4.43;3.63;;;;;;;;;;5060561;28;21558;-68
2021/05/28 09:38:23;;;;;;;7.07;4.05;;;;;;;;;;5068918;28;20147;-68
2021/05/28 09:40:52;;;;;;;7.72;4.45;;;;;;;;;;5072090;28;20052;-68
2021/05/28 09:43:24;;;;;;;16.35;4.90;;;;;;;;;;5064342;28;20037;-68
2021/05/28 09:45:52;;;;;;;6.32;4.10;;;;;;;;;;5060028;28;20045;-68
2021/05/28 09:48:27;;;;;;;10.15;4.43;;;;;;;;;;5066231;28;20188;-68
2021/05/28 09:50:58;;;;;;;8.00;4.20;;;;;;;;;;5069827;28;20543;-68
2021/05/28 09:53:30;;;;;;;5.85;3.97;;;;;;;;;;5068202;28;20052;-68
2021/05/28 09:55:59;;;;;;;5.43;4.05;;;;;;;;;;5069527;28;20044;-68
2021/05/28 09:58:27;;;;;;;4.75;3.33;;;;;;;;;;5069808;28;20082;-68
2021/05/28 10:01:09;;;;;;;6.38;3.70;;;;;;;;;;5076630;28;20048;-68
2021/05/28 10:03:38;;;;;;;4.68;3.20;;;;;;;;;;5073135;28;20139;-68
2021/05/28 10:06:06;;;;;;;4.93;4.15;;;;;;;;;;5070135;28;20060;-68
2021/05/28 10:08:37;;;;;;;5.00;3.78;;;;;;;;;;5069461;28;20547;-68
2021/05/28 10:11:05;;;;;;;6.50;4.28;;;;;;;;;;5067636;28;20052;-69
2021/05/28 10:13:35;;;;;;;4.90;3.88;;;;;;;;;;5067766;28;20044;-68
2021/05/28 10:16:03;;;;;;;7.65;3.50;;;;;;;;;;5065773;28;20048;-68
2021/05/28 10:18:32;;;;;;;6.13;3.85;;;;;;;;;;5065886;28;20052;-68
2021/05/28 10:21:05;;;;;;;7.55;4.40;;;;;;;;;;5065483;28;20443;-68
2021/05/28 10:23:34;;;;;;;5.55;3.83;;;;;;;;;;5063752;28;20508;-68
2021/05/28 10:26:03;;;;;;;9.65;4.18;;;;;;;;;;5065424;28;20058;-68
2021/05/28 10:28:31;;;;;;;5.55;3.70;;;;;;;;;;5065678;28;20067;-68
2021/05/28 10:31:00;;;;;;;9.38;3.95;;;;;;;;;;5066725;28;20123;-68
2021/05/28 10:33:32;;;;;;;5.05;3.47;;;;;;;;;;5065065;28;20075;-68
2021/05/28 10:36:02;;;;;;;7.82;4.00;;;;;;;;;;5066084;28;20056;-68
2021/05/28 10:38:45;;;;;;;5.68;3.83;;;;;;;;;;5067280;28;20088;-68
2021/05/28 10:41:33;;;;;;;6.13;3.42;;;;;;;;;;5072377;28;20040;-68
2021/05/28 10:44:03;;;;;;;6.53;4.30;;;;;;;;;;5075967;28;20046;-68
2021/05/28 10:46:31;;;;;;;4.00;3.60;;;;;;;;;;5072952;28;20040;-68
2021/05/28 10:49:10;;;;;;;10.30;4.57;;;;;;;;;;5072670;28;20048;-68
2021/05/28 10:51:57;;;;;;;8.48;3.88;;;;;;;;;;5074115;28;20136;-68
2021/05/28 10:54:28;;;;;;;4.32;3.40;;;;;;;;;;5072609;28;20057;-68
2021/05/28 10:56:56;;;;;;;8.27;3.33;;;;;;;;;;5073258;28;20056;-68
2021/05/28 10:59:25;;;;;;;7.22;4.38;;;;;;;;;;5071249;28;20054;-68
2021/05/28 11:01:56;;;;;;;6.25;3.92;;;;;;;;;;5073724;28;20056;-68
2021/05/28 11:04:45;;;;;;;4.55;3.85;;;;;;;;;;5075680;28;20566;-68
2021/05/28 11:07:17;;;;;;;6.20;3.35;;;;;;;;;;5092998;28;20131;-68
2021/05/28 11:09:49;;;;;;;7.55;3.20;;;;;;;;;;5078051;28;20052;-68
2021/05/28 11:12:42;;;;;;;6.95;4.25;;;;;;;;;;5073092;28;20061;-69
2021/05/28 11:15:13;;;;;;;8.32;4.95;;;;;;;;;;5072680;28;20076;-69
2021/05/28 11:17:58;;;;;;;5.63;4.78;;;;;;;;;;5071366;28;20041;-69
2021/05/28 11:20:28;;;;;;;7.07;4.68;;;;;;;;;;5086789;28;20123;-69
2021/05/28 11:22:57;;;;;;;6.38;4.38;;;;;;;;;;5073377;28;20087;-68
2021/05/28 11:25:31;;;;;;;4.55;3.45;;;;;;;;;;5070470;28;20052;-68
2021/05/28 11:28:00;;;;;;;;;;;;;;;;;;5062058;28;20293;-68
2021/05/28 11:30:44;;;;;;;6.53;3.88;;;;;;;;;;5067617;28;19983;-69
2021/05/28 11:33:36;;;;;;;6.20;3.80;;;;;;;;;;5070901;28;20468;-68
2021/05/28 11:36:18;;;;;;;6.13;3.58;;;;;;;;;;5051094;28;20110;-68
2021/05/28 11:38:54;;;;;;;6.55;3.97;;;;;;;;;;5071531;28;20100;-69
2021/05/28 11:41:42;;;;;;;7.63;4.68;;;;;;;;;;5076744;28;20063;-69
2021/05/28 11:44:12;;;;;;;6.15;3.70;;;;;;;;;;5071855;28;20484;-69
2021/05/28 11:46:42;;;;;;;5.93;4.00;;;;;;;;;;5070022;28;20083;-69
2021/05/28 11:49:15;;;;;;;5.53;3.70;;;;;;;;;;5067082;28;20555;-69
2021/05/28 11:51:44;;;;;;;6.97;3.80;;;;;;;;;;5051109;28;20047;-69
2021/05/28 11:54:26;;;;;;;6.47;3.78;;;;;;;;;;5073740;28;20480;-69
2021/05/28 11:56:56;;;;;;;4.20;3.38;;;;;;;;;;5070706;28;20056;-69
2021/05/28 11:59:50;;;;;;;4.18;3.10;;;;;;;;;;5070934;28;20058;-69
2021/05/28 12:02:34;;;;;;;7.25;3.78;;;;;;;;;;5079924;28;20067;-68
2021/05/28 12:05:04;;;;;;;4.90;3.05;;;;;;;;;;5069545;28;20049;-69
2021/05/28 12:07:32;;;;;;;5.28;3.53;;;;;;;;;;5070676;28;20059;-68
2021/05/28 12:10:00;;;;;;;6.78;3.42;;;;;;;;;;5071256;28;20090;-68
2021/05/28 12:12:49;;;;;;;8.93;3.50;;;;;;;;;;5064716;28;20049;-68
2021/05/28 12:15:18;;;;;;;6.28;3.83;;;;;;;;;;5085679;28;20410;-67
2021/05/28 12:17:48;;;;;;;6.25;3.72;;;;;;;;;;5080659;28;20040;-68
2021/05/28 12:20:17;;;;;;;5.57;3.33;;;;;;;;;;5057230;28;20050;-68
2021/05/28 12:22:58;;;;;;;6.97;3.00;;;;;;;;;;5086372;28;20048;-69
2021/05/28 12:25:27;;;;;;;6.03;3.20;;;;;;;;;;5071138;28;20078;-69
2021/05/28 12:28:06;;;;;;;5.30;3.40;;;;;;;;;;5070555;28;20634;-69
2021/05/28 12:30:35;;;;;;;4.55;3.17;;;;;;;;;;5068568;28;20051;-68
2021/05/28 12:33:03;;;;;;;6.28;3.20;;;;;;;;;;5071226;28;20041;-69
2021/05/28 12:35:31;;;;;;;5.25;3.10;;;;;;;;;;5070636;28;20335;-69
2021/05/28 12:38:20;;;;;;;3.90;2.78;;;;;;;;;;5067653;28;20049;-70
2021/05/28 12:41:11;;;;;;;3.55;2.47;;;;;;;;;;2996109;28;10003385;-68
2021/05/28 12:43:42;;;;;;;4.45;2.70;;;;;;;;;;3312514;28;10001256;-69
2021/05/28 12:46:18;;;;;;;3.78;2.83;;;;;;;;;;5070500;28;20127;-69
2021/05/28 12:48:54;;;;;;;3.63;2.78;;;;;;;;;;5070421;28;20142;-69
2021/05/28 12:51:30;;;;;;;4.20;2.63;;;;;;;;;;5051077;28;20052;-70
2021/05/28 12:53:59;;;;;;;5.68;2.90;;;;;;;;;;5062425;28;20044;-69
2021/05/28 12:56:29;;;;;;;4.72;2.95;;;;;;;;;;5084923;28;20076;-69
2021/05/28 12:58:58;;;;;;;4.18;2.47;;;;;;;;;;5068760;28;20127;-68
2021/05/28 13:01:28;;;;;;;6.15;3.67;;;;;;;;;;5067421;28;20040;-69
2021/05/28 13:04:01;;;;;;;3.50;2.70;;;;;;;;;;5065452;28;20084;-69
2021/05/28 13:06:36;;;;;;;4.13;3.13;;;;;;;;;;5066960;28;20106;-70
2021/05/28 13:09:07;;;;;;;3.83;2.80;;;;;;;;;;5087554;28;20044;-69
2021/05/28 13:11:59;;;;;;;5.05;2.88;;;;;;;;;;5080890;28;20052;-69
2021/05/28 13:14:30;;;;;;;6.82;3.08;;;;;;;;;;5068496;28;20123;-69
2021/05/28 13:17:13;;;;;;;3.85;2.70;;;;;;;;;;5063670;28;20503;-69
2021/05/28 13:19:44;;;;;;;4.95;3.00;;;;;;;;;;5060788;28;20416;-69
2021/05/28 13:22:13;;;;;;;6.25;3.25;;;;;;;;;;5064097;28;20131;-69
2021/05/28 13:24:43;;;;;;;4.45;3.05;;;;;;;;;;5066634;28;20557;-69
2021/05/28 13:27:18;;;;;;;4.45;2.63;;;;;;;;;;5069237;28;20064;-69
2021/05/28 13:29:52;;;;;;;3.15;2.72;;;;;;;;;;5069662;28;20052;-69
2021/05/28 13:32:21;;;;;;;6.00;3.63;;;;;;;;;;5070080;28;20044;-68
2021/05/28 13:34:50;;;;;;;6.93;2.70;;;;;;;;;;5073447;28;20401;-69
2021/05/28 13:37:18;;;;;;;6.60;3.88;;;;;;;;;;5069678;28;20446;-68
2021/05/28 13:39:47;;;;;;;3.70;2.50;;;;;;;;;;5070158;28;20056;-70
2021/05/28 13:42:26;;;;;;;5.45;2.70;;;;;;;;;;5067515;28;20138;-69
2021/05/28 13:44:55;;;;;;;3.95;2.83;;;;;;;;;;5069802;28;20036;-69
2021/05/28 13:47:23;;;;;;;3.85;2.53;;;;;;;;;;5086904;28;20044;-69
2021/05/28 13:49:52;;;;;;;4.22;3.42;;;;;;;;;;5069632;28;20044;-69
2021/05/28 13:52:20;;;;;;;5.82;2.65;;;;;;;;;;5069417;28;20068;-69
2021/05/28 13:54:48;;;;;;;4.07;3.22;;;;;;;;;;5069584;28;20389;-69
2021/05/28 13:57:16;;;;;;;5.15;2.83;;;;;;;;;;5069085;28;20118;-69
2021/05/28 13:59:44;;;;;;;4.15;3.10;;;;;;;;;;5069359;28;20052;-70
2021/05/28 14:02:14;;;;;;;5.05;2.83;;;;;;;;;;5069105;28;20135;-69
2021/05/28 14:04:44;;;;;;;4.60;2.83;;;;;;;;;;5069443;28;20076;-69
2021/05/28 14:07:12;;;;;;;4.10;2.75;;;;;;;;;;5067541;28;20122;-68
2021/05/28 14:09:42;;;;;;;4.68;2.83;;;;;;;;;;5069555;28;20080;-69
2021/05/28 14:12:12;;;;;;;4.10;3.08;;;;;;;;;;5069268;28;20049;-69
2021/05/28 14:14:40;;;;;;;6.22;3.50;;;;;;;;;;5079108;28;20036;-69
2021/05/28 14:17:08;;;;;;;3.53;3.00;;;;;;;;;;5069029;28;20407;-69
2021/05/28 14:19:38;;;;;;;5.90;4.28;;;;;;;;;;5069642;28;20045;-69
2021/05/28 14:22:09;;;;;;;5.88;3.47;;;;;;;;;;5069152;28;20480;-69
2021/05/28 14:24:40;;;;;;;;;;;;;;;;;;5069918;28;20059;-69
2021/05/28 14:27:08;;;;;;;6.75;4.15;;;;;;;;;;5068517;28;19959;-69
2021/05/28 14:29:36;;;;;;;5.95;3.97;;;;;;;;;;5067435;28;20514;-69
2021/05/28 14:32:04;;;;;;;5.57;3.60;;;;;;;;;;5074160;28;20130;-69
2021/05/28 14:34:33;;;;;;;7.72;3.22;;;;;;;;;;5068434;28;20040;-69
2021/05/28 14:37:02;;;;;;;5.18;3.08;;;;;;;;;;5068528;28;20064;-69
2021/05/28 14:39:30;;;;;;;4.97;3.45;;;;;;;;;;5067897;28;20508;-69
2021/05/28 14:42:00;;;;;;;6.80;3.80;;;;;;;;;;5070366;28;20438;-69
2021/05/28 14:44:29;;;;;;;6.57;4.53;;;;;;;;;;5062381;28;20041;-70
2021/05/28 14:46:57;;;;;;;7.13;3.70;;;;;;;;;;5066355;28;20076;-69
2021/05/28 14:49:39;;;;;;;4.93;3.38;;;;;;;;;;5068680;28;20132;-69
2021/05/28 14:52:13;;;;;;;4.47;3.22;;;;;;;;;;5068531;28;22161;-69
2021/05/28 14:54:44;;;;;;;4.88;3.05;;;;;;;;;;5067287;28;20059;-69
2021/05/28 14:57:12;;;;;;;4.45;2.78;;;;;;;;;;5068522;28;20079;-69
2021/05/28 14:59:40;;;;;;;6.22;3.40;;;;;;;;;;5067280;28;20044;-68
2021/05/28 15:02:07;;;;;;;7.13;3.75;;;;;;;;;;5069080;28;20048;-69